Assaria, Kansas
Current Conditions -  °F | °C
As of 4:53 PM on Saturday 25 Oct 2014 (Local Time) from KSLN Reporting Station
Clear Clear  
Wind Chill: 88°   Ceiling: Unl
Heat Index: 88°   Visibility: 10mi
Dew Point: 57°   Wind: 9mph
Humidity: 35%   Direction: 170°S
Pressure: 29.97"   Gusts: NA
Location:  38.68°N, 97.6°W
Report Text: KSLN 252153Z 17008KT 10SM CLR 31/14 A2997 RMK AO2 SLP140 T03110139
Loading
Personal Weather Stations






























Interactive Weather Map New forecast layout! Learn more

10-Day Weather Forecast

Advertisements
Track Severe Weather on mobile